createdAt,value
2018-03-16T00:01:00.231Z,29.10
2018-03-16T00:03:27.430Z,29.10
2018-03-16T00:05:54.443Z,29.10
2018-03-16T00:08:21.452Z,29.10
2018-03-16T00:10:48.455Z,29.10
2018-03-16T00:13:16.235Z,29.10
2018-03-16T00:15:43.226Z,29.10
2018-03-16T00:18:10.211Z,29.10
2018-03-16T00:20:37.195Z,29.10
2018-03-16T00:23:04.216Z,29.10
2018-03-16T00:25:31.213Z,29.10
2018-03-16T00:27:58.212Z,29.10
2018-03-16T00:30:25.206Z,29.00
2018-03-16T00:32:52.402Z,29.10
2018-03-16T00:35:19.406Z,29.20
2018-03-16T00:37:46.426Z,29.10
2018-03-16T00:40:13.417Z,29.10
2018-03-16T00:42:41.218Z,29.10
2018-03-16T00:45:08.208Z,29.10
2018-03-16T00:47:35.214Z,29.00
2018-03-16T00:50:02.201Z,29.10
2018-03-16T00:52:29.410Z,29.00
2018-03-16T00:54:56.400Z,29.00
2018-03-16T00:57:23.397Z,29.00
2018-03-16T00:59:50.407Z,29.10
2018-03-16T01:02:17.594Z,29.10
2018-03-16T01:04:44.591Z,29.10
2018-03-16T01:07:11.593Z,29.60
2018-03-16T01:09:38.590Z,29.00
2018-03-16T01:12:05.575Z,29.00
2018-03-16T01:14:32.594Z,29.00
2018-03-16T01:17:01.095Z,29.00
2018-03-16T01:19:28.088Z,29.00
2018-03-16T01:21:55.084Z,29.00
2018-03-16T01:24:22.890Z,29.00
2018-03-16T01:26:49.845Z,29.00
2018-03-16T01:29:16.846Z,29.00
2018-03-16T01:31:44.614Z,29.00
2018-03-16T01:34:11.622Z,29.00
2018-03-16T01:36:38.622Z,29.00
2018-03-16T01:39:05.610Z,29.00
2018-03-16T01:41:32.607Z,29.00
2018-03-16T01:43:59.656Z,28.90
2018-03-16T01:46:26.657Z,28.90
2018-03-16T01:48:53.639Z,29.00
2018-03-16T01:51:20.642Z,29.50
2018-03-16T01:53:47.836Z,29.00
2018-03-16T01:56:14.829Z,29.00
2018-03-16T01:58:41.852Z,29.00
2018-03-16T02:01:08.862Z,29.00
2018-03-16T02:03:36.658Z,29.00
2018-03-16T02:06:04.712Z,29.00
2018-03-16T02:08:31.709Z,28.90
2018-03-16T02:10:58.717Z,29.00
2018-03-16T02:13:25.868Z,28.90
2018-03-16T02:15:52.864Z,29.00
2018-03-16T02:18:19.857Z,28.90
2018-03-16T02:20:46.854Z,28.90
2018-03-16T02:23:13.858Z,28.90
2018-03-16T02:25:40.855Z,28.90
2018-03-16T02:28:07.861Z,29.40
2018-03-16T02:30:34.842Z,29.00
2018-03-16T02:33:02.089Z,28.90
2018-03-16T02:35:29.058Z,28.90
2018-03-16T02:37:56.062Z,28.80
2018-03-16T02:40:23.063Z,28.90
2018-03-16T02:42:50.858Z,28.90
2018-03-16T02:45:17.844Z,28.90
2018-03-16T02:47:44.855Z,28.90
2018-03-16T02:50:11.853Z,28.80
2018-03-16T02:52:39.052Z,28.90
2018-03-16T02:55:06.035Z,28.80
2018-03-16T02:57:33.039Z,28.80
2018-03-16T03:00:00.033Z,28.90
2018-03-16T03:02:27.027Z,28.80
2018-03-16T03:04:54.031Z,28.80
2018-03-16T03:07:22.529Z,28.80
2018-03-16T03:09:49.536Z,28.80
2018-03-16T03:12:16.694Z,28.80
2018-03-16T03:14:43.685Z,28.80
2018-03-16T03:17:10.828Z,28.80
2018-03-16T03:19:38.574Z,28.80
2018-03-16T03:22:05.569Z,28.80
2018-03-16T03:24:32.570Z,28.70
2018-03-16T03:26:59.551Z,28.80
2018-03-16T03:29:26.556Z,28.80
2018-03-16T03:31:53.543Z,28.80
2018-03-16T03:34:20.538Z,28.70
2018-03-16T03:36:47.541Z,28.80
2018-03-16T03:39:14.530Z,28.80
2018-03-16T03:41:41.522Z,28.70
2018-03-16T03:44:08.567Z,28.80
2018-03-16T03:46:35.557Z,28.80
2018-03-16T03:49:02.552Z,28.70
2018-03-16T03:51:29.531Z,28.70
2018-03-16T03:53:56.672Z,28.70
2018-03-16T03:56:23.666Z,28.70
2018-03-16T03:58:50.674Z,28.70
2018-03-16T04:01:17.662Z,28.70
2018-03-16T04:03:44.875Z,28.70
2018-03-16T04:06:11.875Z,28.70
2018-03-16T04:08:38.862Z,28.70
2018-03-16T04:11:05.866Z,28.70
2018-03-16T04:13:33.700Z,28.70
2018-03-16T04:16:00.703Z,28.60
2018-03-16T04:18:27.693Z,28.60
2018-03-16T04:20:54.712Z,28.70
2018-03-16T04:23:21.858Z,28.60
2018-03-16T04:25:49.092Z,28.70
2018-03-16T04:28:16.104Z,28.70
2018-03-16T04:30:43.982Z,28.60
2018-03-16T04:33:11.269Z,28.60
2018-03-16T04:35:38.269Z,28.60
2018-03-16T04:38:05.285Z,28.60
2018-03-16T04:40:32.275Z,28.60
2018-03-16T04:42:59.500Z,28.60
2018-03-16T04:45:26.516Z,28.70
2018-03-16T04:47:53.528Z,29.10
2018-03-16T04:50:20.522Z,28.60
2018-03-16T04:52:47.655Z,28.60
2018-03-16T04:55:14.639Z,28.60
2018-03-16T04:57:41.636Z,28.70
2018-03-16T05:00:08.640Z,29.20
2018-03-16T05:02:35.855Z,28.60
2018-03-16T05:05:02.852Z,28.60
2018-03-16T05:07:29.852Z,28.60
2018-03-16T05:09:56.850Z,28.60
2018-03-16T05:12:24.048Z,28.70
2018-03-16T05:14:51.033Z,28.60
2018-03-16T05:17:18.731Z,28.70
2018-03-16T05:19:45.716Z,28.60
2018-03-16T05:22:12.843Z,28.60
2018-03-16T05:24:39.853Z,28.60
2018-03-16T05:27:06.851Z,28.70
2018-03-16T05:29:33.833Z,28.60
2018-03-16T05:32:00.824Z,28.60
2018-03-16T05:34:27.821Z,28.60
2018-03-16T05:36:54.822Z,28.60
2018-03-16T05:39:21.819Z,28.60
2018-03-16T05:41:48.814Z,28.60
2018-03-16T05:44:15.843Z,28.60
2018-03-16T05:46:42.838Z,28.70
2018-03-16T05:49:09.834Z,28.60
2018-03-16T05:51:36.837Z,28.70
2018-03-16T05:54:03.853Z,28.70
2018-03-16T05:56:30.864Z,28.70
2018-03-16T05:58:57.861Z,28.80
2018-03-16T06:01:24.833Z,28.80
2018-03-16T06:03:52.034Z,28.70
2018-03-16T06:06:19.049Z,28.80
2018-03-16T06:08:46.055Z,28.80
2018-03-16T06:11:13.054Z,28.80
2018-03-16T06:13:40.859Z,28.60
2018-03-16T06:16:07.855Z,28.60
2018-03-16T06:18:34.852Z,28.50
2018-03-16T06:21:01.846Z,28.90
2018-03-16T06:23:29.675Z,28.90
2018-03-16T06:25:56.707Z,28.80
2018-03-16T06:28:23.687Z,28.80
2018-03-16T06:30:50.683Z,28.70
2018-03-16T06:33:18.450Z,28.90
2018-03-16T06:35:45.450Z,28.90
2018-03-16T06:38:12.446Z,28.90
2018-03-16T06:40:39.464Z,28.80
2018-03-16T06:43:07.275Z,28.90
2018-03-16T06:45:34.307Z,28.90
2018-03-16T06:48:01.301Z,28.90
2018-03-16T06:50:28.297Z,29.00
2018-03-16T06:52:55.468Z,29.00
2018-03-16T06:55:22.476Z,29.00
2018-03-16T06:57:49.485Z,28.90
2018-03-16T07:00:16.515Z,28.90
2018-03-16T07:02:43.633Z,28.80
2018-03-16T07:05:10.628Z,28.80
2018-03-16T07:07:37.641Z,29.10
2018-03-16T07:10:04.637Z,29.00
2018-03-16T07:12:31.836Z,29.00
2018-03-16T07:14:58.846Z,28.90
2018-03-16T07:17:25.833Z,29.00
2018-03-16T07:19:52.824Z,29.10
2018-03-16T07:22:20.023Z,29.20
2018-03-16T07:24:47.021Z,29.00
2018-03-16T07:27:14.088Z,28.90
2018-03-16T07:29:41.198Z,28.90
2018-03-16T07:32:08.218Z,28.90
2018-03-16T07:34:35.282Z,29.00
2018-03-16T07:37:02.277Z,29.00
2018-03-16T07:39:29.294Z,29.00
2018-03-16T07:41:56.305Z,29.10
2018-03-16T07:44:23.295Z,29.10
2018-03-16T07:46:50.298Z,29.10
2018-03-16T07:49:17.294Z,29.10
2018-03-16T07:51:45.052Z,29.10
2018-03-16T07:54:12.050Z,29.10
2018-03-16T07:56:39.043Z,29.10
2018-03-16T07:59:06.075Z,29.10
2018-03-16T08:01:33.116Z,28.90
2018-03-16T08:04:00.239Z,29.00
2018-03-16T08:06:27.234Z,29.10
2018-03-16T08:08:54.241Z,29.20
2018-03-16T08:11:21.226Z,29.10
2018-03-16T08:13:48.437Z,29.40
2018-03-16T08:16:15.438Z,29.10
2018-03-16T08:18:42.444Z,29.10
2018-03-16T08:21:09.469Z,29.20
2018-03-16T08:23:36.812Z,29.20
2018-03-16T08:26:03.805Z,29.10
2018-03-16T08:28:30.909Z,29.10
2018-03-16T08:30:57.898Z,29.10
2018-03-16T08:33:25.032Z,29.10
2018-03-16T08:35:52.718Z,29.10
2018-03-16T08:38:19.747Z,29.10
2018-03-16T08:40:47.054Z,29.10
2018-03-16T08:43:14.844Z,29.10
2018-03-16T08:45:41.847Z,29.10
2018-03-16T08:48:09.096Z,29.10
2018-03-16T08:50:36.101Z,29.10
2018-03-16T08:53:03.260Z,29.10
2018-03-16T08:55:30.273Z,29.10
2018-03-16T08:57:57.559Z,29.10
2018-03-16T09:00:24.553Z,29.10
2018-03-16T09:02:51.788Z,29.10
2018-03-16T09:05:18.755Z,29.10
2018-03-16T09:07:45.806Z,29.20
2018-03-16T09:10:13.567Z,29.20
2018-03-16T09:12:40.726Z,29.20
2018-03-16T09:15:07.682Z,29.10
2018-03-16T09:17:34.887Z,29.20
2018-03-16T09:20:01.917Z,29.20
2018-03-16T09:22:29.046Z,29.20
2018-03-16T09:24:56.074Z,29.20
2018-03-16T09:27:23.072Z,29.70
2018-03-16T09:29:50.082Z,29.20
2018-03-16T09:32:18.044Z,29.30
2018-03-16T09:34:45.084Z,29.20
2018-03-16T09:37:12.082Z,29.30
2018-03-16T09:39:39.065Z,29.30
2018-03-16T09:42:06.893Z,29.30
2018-03-16T09:44:33.894Z,29.30
2018-03-16T09:47:00.907Z,29.20
2018-03-16T09:49:27.908Z,29.20
2018-03-16T09:51:54.903Z,29.30
2018-03-16T09:54:21.907Z,29.20
2018-03-16T09:56:48.908Z,29.40
2018-03-16T09:59:15.892Z,29.40
2018-03-16T10:01:42.896Z,29.40
2018-03-16T10:04:10.670Z,29.40
2018-03-16T10:06:37.702Z,29.40
2018-03-16T10:09:04.702Z,29.40
2018-03-16T10:11:31.721Z,29.30
2018-03-16T10:13:59.530Z,29.30
2018-03-16T10:16:26.513Z,29.30
2018-03-16T10:18:53.513Z,29.30
2018-03-16T10:21:20.513Z,29.30
2018-03-16T10:23:47.703Z,29.80
2018-03-16T10:26:14.689Z,29.40
2018-03-16T10:28:41.676Z,29.40
2018-03-16T10:31:08.727Z,29.40
2018-03-16T10:33:35.892Z,29.40
2018-03-16T10:36:02.869Z,29.40
2018-03-16T10:38:29.886Z,29.40
2018-03-16T10:40:56.895Z,29.40
2018-03-16T10:43:24.688Z,29.30
2018-03-16T10:45:51.758Z,29.30
2018-03-16T10:48:18.746Z,29.30
2018-03-16T10:50:45.750Z,29.30
2018-03-16T10:53:12.879Z,29.40
2018-03-16T10:55:39.885Z,29.40
2018-03-16T10:58:08.385Z,29.50
2018-03-16T11:00:35.389Z,29.50
2018-03-16T11:03:02.504Z,29.40
2018-03-16T11:05:29.500Z,29.40
2018-03-16T11:07:56.513Z,29.40
2018-03-16T11:10:23.516Z,29.40
2018-03-16T11:12:51.321Z,29.40
2018-03-16T11:15:19.337Z,29.40
2018-03-16T11:17:46.324Z,29.40
2018-03-16T11:20:13.320Z,29.30
2018-03-16T11:22:40.525Z,29.40
2018-03-16T11:25:07.526Z,29.40
2018-03-16T11:27:34.542Z,29.40
2018-03-16T11:30:01.552Z,29.40
2018-03-16T11:32:28.721Z,29.40
2018-03-16T11:34:55.726Z,29.40
2018-03-16T11:37:22.722Z,29.30
2018-03-16T11:39:49.724Z,29.30
2018-03-16T11:42:17.714Z,29.30
2018-03-16T11:44:44.731Z,29.30
2018-03-16T11:47:12.418Z,29.30
2018-03-16T11:49:39.586Z,29.30
2018-03-16T11:52:07.395Z,29.40
2018-03-16T11:54:34.409Z,29.40
2018-03-16T11:57:01.394Z,29.50
2018-03-16T11:59:29.157Z,29.40
2018-03-16T12:01:56.188Z,29.40
2018-03-16T12:04:23.190Z,29.40
2018-03-16T12:06:50.208Z,29.50
2018-03-16T12:09:17.202Z,29.40
2018-03-16T12:11:44.200Z,29.40
2018-03-16T12:14:11.993Z,29.50
2018-03-16T12:16:38.986Z,29.40
2018-03-16T12:19:05.985Z,29.40
2018-03-16T12:21:32.974Z,29.50
2018-03-16T12:23:59.986Z,29.40
2018-03-16T12:26:26.986Z,29.80
2018-03-16T12:28:53.991Z,29.60
2018-03-16T12:31:21.140Z,29.40
2018-03-16T12:33:48.988Z,29.30
2018-03-16T12:36:16.022Z,29.30
2018-03-16T12:38:43.041Z,29.30
2018-03-16T12:41:10.367Z,29.50
2018-03-16T12:43:37.415Z,29.50
2018-03-16T12:46:04.413Z,29.40
2018-03-16T12:48:31.433Z,29.40
2018-03-16T12:50:58.434Z,29.40
2018-03-16T12:53:25.598Z,29.40
2018-03-16T12:55:52.609Z,29.50
2018-03-16T12:58:19.621Z,29.40
2018-03-16T13:00:46.629Z,29.50
2018-03-16T13:03:13.799Z,29.40
2018-03-16T13:05:40.818Z,29.40
2018-03-16T13:08:07.819Z,29.40
2018-03-16T13:10:34.850Z,29.40
2018-03-16T13:13:01.976Z,29.40
2018-03-16T13:15:29.040Z,29.40
2018-03-16T13:17:56.038Z,29.40
2018-03-16T13:20:23.042Z,29.40
2018-03-16T13:22:50.171Z,29.90
2018-03-16T13:25:17.165Z,29.40
2018-03-16T13:27:44.165Z,29.30
2018-03-16T13:30:11.162Z,29.30
2018-03-16T13:32:38.355Z,29.40
2018-03-16T13:35:05.348Z,29.40
2018-03-16T13:37:32.351Z,29.40
2018-03-16T13:39:59.354Z,29.40
2018-03-16T13:42:27.155Z,30.10
2018-03-16T13:44:54.203Z,29.60
2018-03-16T13:47:21.676Z,29.60
2018-03-16T13:49:48.793Z,29.20
2018-03-16T13:52:15.968Z,29.00
2018-03-16T13:54:42.978Z,29.10
2018-03-16T13:57:09.977Z,29.10
2018-03-16T13:59:36.965Z,29.30
2018-03-16T14:02:04.764Z,29.30
2018-03-16T14:04:31.761Z,29.30
2018-03-16T14:07:00.263Z,29.20
2018-03-16T14:09:27.258Z,29.20
2018-03-16T14:11:54.301Z,29.20
2018-03-16T14:14:21.266Z,29.20
2018-03-16T14:16:48.272Z,29.10
2018-03-16T14:19:15.280Z,29.10
2018-03-16T14:21:42.264Z,29.20
2018-03-16T14:24:09.268Z,29.20
2018-03-16T14:26:36.284Z,29.20
2018-03-16T14:29:03.271Z,29.10
2018-03-16T14:31:30.270Z,29.10
2018-03-16T14:33:57.417Z,29.10
2018-03-16T14:36:24.423Z,29.10
2018-03-16T14:38:52.330Z,29.10
2018-03-16T14:41:19.327Z,29.10
2018-03-16T14:43:47.860Z,29.10
2018-03-16T14:46:14.860Z,29.10
2018-03-16T14:48:41.854Z,29.10
2018-03-16T14:51:08.845Z,29.10
2018-03-16T14:53:36.236Z,29.10
2018-03-16T14:56:03.222Z,29.10
2018-03-16T14:58:30.228Z,29.10
2018-03-16T15:00:57.976Z,29.10
2018-03-16T15:03:25.061Z,29.10
2018-03-16T15:05:52.057Z,29.00
2018-03-16T15:08:19.057Z,29.10
2018-03-16T15:10:46.082Z,29.00
2018-03-16T15:13:13.876Z,29.00
2018-03-16T15:15:40.869Z,29.00
2018-03-16T15:18:07.856Z,29.00
2018-03-16T15:20:34.856Z,29.00
2018-03-16T15:23:02.666Z,29.00
2018-03-16T15:25:29.651Z,29.10
2018-03-16T15:27:56.644Z,29.10
2018-03-16T15:30:23.800Z,29.10
2018-03-16T15:32:50.854Z,29.00
2018-03-16T15:35:17.979Z,29.00
2018-03-16T15:37:45.968Z,29.00
2018-03-16T15:40:13.028Z,29.00
2018-03-16T15:42:40.263Z,28.90
2018-03-16T15:45:07.254Z,29.00
2018-03-16T15:47:34.358Z,29.00
2018-03-16T15:50:01.404Z,29.00
2018-03-16T15:52:28.494Z,29.00
2018-03-16T15:54:55.482Z,29.00
2018-03-16T15:57:22.493Z,29.00
2018-03-16T15:59:49.474Z,29.10
2018-03-16T16:02:17.209Z,29.00
2018-03-16T16:04:44.204Z,29.00
2018-03-16T16:07:11.210Z,29.10
2018-03-16T16:09:38.209Z,29.10
2018-03-16T16:12:05.276Z,29.10
2018-03-16T16:14:32.255Z,29.10
2018-03-16T16:16:59.259Z,29.00
2018-03-16T16:19:26.283Z,29.00
2018-03-16T16:21:54.079Z,29.10
2018-03-16T16:24:21.082Z,29.10
2018-03-16T16:26:48.069Z,29.00
2018-03-16T16:29:15.092Z,29.00
2018-03-16T16:31:42.095Z,29.00
2018-03-16T16:34:09.105Z,29.00
2018-03-16T16:36:36.109Z,29.00
2018-03-16T16:39:03.165Z,29.10
2018-03-16T16:41:31.002Z,29.50
2018-03-16T16:43:58.148Z,29.40
2018-03-16T16:46:25.142Z,29.20
2018-03-16T16:48:52.161Z,29.10
2018-03-16T16:51:19.158Z,29.10
2018-03-16T16:53:46.315Z,29.40
2018-03-16T16:56:13.314Z,29.90
2018-03-16T16:58:40.330Z,30.10
2018-03-16T17:01:07.318Z,30.30
2018-03-16T17:03:34.493Z,30.40
2018-03-16T17:06:01.512Z,30.50
2018-03-16T17:08:28.527Z,30.50
2018-03-16T17:10:55.521Z,30.50
2018-03-16T17:13:22.700Z,30.60
2018-03-16T17:15:50.905Z,30.60
2018-03-16T17:18:17.990Z,30.60
2018-03-16T17:20:44.974Z,30.60
2018-03-16T17:23:12.289Z,31.30
2018-03-16T17:25:39.290Z,30.60
2018-03-16T17:28:07.793Z,30.70
2018-03-16T17:30:35.052Z,30.70
2018-03-16T17:33:02.527Z,30.60
2018-03-16T17:35:29.522Z,30.70
2018-03-16T17:37:56.514Z,30.60
2018-03-16T17:40:24.387Z,30.60
2018-03-16T17:42:52.677Z,30.60
2018-03-16T17:45:19.712Z,30.50
2018-03-16T17:47:46.716Z,30.60
2018-03-16T17:50:13.789Z,30.60
2018-03-16T17:52:41.594Z,30.70
2018-03-16T17:55:08.582Z,30.70
2018-03-16T17:57:35.599Z,30.70
2018-03-16T18:00:02.618Z,30.70
2018-03-16T18:02:30.223Z,30.70
2018-03-16T18:04:57.493Z,30.70
2018-03-16T18:07:24.483Z,30.70
2018-03-16T18:09:51.493Z,30.70
2018-03-16T18:12:18.578Z,30.70
2018-03-16T18:14:45.578Z,31.30
2018-03-16T18:17:12.896Z,30.70
2018-03-16T18:19:40.276Z,30.70
2018-03-16T18:22:07.387Z,30.70
2018-03-16T18:24:34.452Z,30.70
2018-03-16T18:27:01.506Z,30.70
2018-03-16T18:29:28.498Z,30.70
2018-03-16T18:31:55.469Z,30.70
2018-03-16T18:34:22.496Z,30.70
2018-03-16T18:36:50.275Z,30.70
2018-03-16T18:39:17.270Z,30.70
2018-03-16T18:41:44.284Z,30.70
2018-03-16T18:44:11.274Z,30.70
2018-03-16T18:46:38.290Z,30.50
2018-03-16T18:49:05.283Z,31.10
2018-03-16T18:51:32.288Z,30.80
2018-03-16T18:53:59.410Z,30.90
2018-03-16T18:56:26.512Z,30.90
2018-03-16T18:58:53.518Z,30.90
2018-03-16T19:01:21.500Z,31.00
2018-03-16T19:03:48.654Z,31.00
2018-03-16T19:06:15.657Z,31.00
2018-03-16T19:08:42.680Z,31.00
2018-03-16T19:11:09.677Z,31.10
2018-03-16T19:13:36.826Z,31.10
2018-03-16T19:16:03.810Z,31.00
2018-03-16T19:18:30.809Z,31.10
2018-03-16T19:20:57.788Z,31.00
2018-03-16T19:23:24.797Z,31.00
2018-03-16T19:25:51.868Z,31.00
2018-03-16T19:28:18.864Z,31.00
2018-03-16T19:30:45.905Z,31.00
2018-03-16T19:33:13.460Z,31.00
2018-03-16T19:35:40.505Z,31.10
2018-03-16T19:38:07.502Z,31.10
2018-03-16T19:40:34.543Z,31.00
2018-03-16T19:43:01.602Z,31.00
2018-03-16T19:45:28.657Z,31.00
2018-03-16T19:47:55.642Z,31.00
2018-03-16T19:50:22.666Z,31.00
2018-03-16T19:52:49.812Z,31.00
2018-03-16T19:55:16.823Z,31.10
2018-03-16T19:57:43.823Z,31.00
2018-03-16T20:00:10.928Z,30.90
2018-03-16T20:02:38.003Z,31.10
2018-03-16T20:05:05.220Z,31.00
2018-03-16T20:07:32.211Z,31.00
2018-03-16T20:09:59.199Z,30.90
2018-03-16T20:12:26.994Z,30.90
2018-03-16T20:14:55.665Z,30.80
2018-03-16T20:17:23.849Z,30.80
2018-03-16T20:19:50.884Z,31.00
2018-03-16T20:22:18.679Z,30.80
2018-03-16T20:24:45.677Z,30.80
2018-03-16T20:27:12.690Z,30.80
2018-03-16T20:29:39.689Z,30.80
2018-03-16T20:32:06.864Z,30.80
2018-03-16T20:34:33.853Z,30.80
2018-03-16T20:37:00.846Z,30.80
2018-03-16T20:39:27.846Z,30.90
2018-03-16T20:41:54.889Z,30.80
2018-03-16T20:44:21.900Z,30.70
2018-03-16T20:46:48.900Z,30.80
2018-03-16T20:49:15.941Z,30.80
2018-03-16T20:51:42.937Z,30.80
2018-03-16T20:54:09.940Z,30.70
2018-03-16T20:56:37.713Z,30.70
2018-03-16T20:59:04.717Z,30.60
2018-03-16T21:01:31.700Z,30.70
2018-03-16T21:03:59.503Z,30.70
2018-03-16T21:06:26.516Z,30.70
2018-03-16T21:08:53.506Z,30.60
2018-03-16T21:11:20.497Z,30.70
2018-03-16T21:13:48.325Z,30.70
2018-03-16T21:16:15.313Z,30.70
2018-03-16T21:18:42.313Z,30.60
2018-03-16T21:21:09.322Z,30.60
2018-03-16T21:23:37.123Z,30.60
2018-03-16T21:26:04.143Z,30.60
2018-03-16T21:28:31.146Z,30.50
2018-03-16T21:30:58.187Z,30.60
2018-03-16T21:33:25.333Z,30.60
2018-03-16T21:35:52.335Z,31.20
2018-03-16T21:38:19.332Z,30.50
2018-03-16T21:40:46.335Z,30.50
2018-03-16T21:43:13.494Z,30.50
2018-03-16T21:45:40.486Z,30.40
2018-03-16T21:48:07.503Z,30.40
2018-03-16T21:50:34.511Z,30.50
2018-03-16T21:53:01.669Z,30.50
2018-03-16T21:55:28.667Z,30.40
2018-03-16T21:57:55.725Z,30.40
2018-03-16T22:00:23.484Z,30.40
2018-03-16T22:02:50.480Z,30.40
2018-03-16T22:05:17.515Z,31.00
2018-03-16T22:07:44.588Z,30.40
2018-03-16T22:10:11.584Z,30.30
2018-03-16T22:12:38.687Z,30.30
2018-03-16T22:15:05.678Z,30.30
2018-03-16T22:17:34.178Z,30.30
2018-03-16T22:20:01.177Z,30.30
2018-03-16T22:22:28.303Z,30.30
2018-03-16T22:24:55.299Z,30.30
2018-03-16T22:27:22.293Z,30.30
2018-03-16T22:29:49.292Z,30.30
2018-03-16T22:32:16.281Z,30.30
2018-03-16T22:34:43.284Z,30.30
2018-03-16T22:37:10.302Z,30.30
2018-03-16T22:39:37.340Z,30.30
2018-03-16T22:42:04.489Z,30.30
2018-03-16T22:44:31.710Z,30.20
2018-03-16T22:46:58.714Z,30.20
2018-03-16T22:49:25.743Z,30.20
2018-03-16T22:51:52.741Z,30.20
2018-03-16T22:54:20.528Z,30.20
2018-03-16T22:56:47.616Z,30.20
2018-03-16T22:59:14.651Z,30.20
2018-03-16T23:01:41.658Z,30.20
2018-03-16T23:04:08.646Z,30.20
2018-03-16T23:06:35.638Z,30.20
2018-03-16T23:09:03.424Z,30.20
2018-03-16T23:11:30.420Z,30.10
2018-03-16T23:13:57.594Z,30.20
2018-03-16T23:16:25.350Z,30.60
2018-03-16T23:18:52.341Z,30.20
2018-03-16T23:21:19.345Z,30.10
2018-03-16T23:23:46.526Z,30.10
2018-03-16T23:26:13.544Z,30.20
2018-03-16T23:28:40.533Z,30.10
2018-03-16T23:31:07.531Z,30.10
2018-03-16T23:33:34.768Z,30.10
2018-03-16T23:36:01.768Z,30.10
2018-03-16T23:38:28.775Z,30.10
2018-03-16T23:40:55.845Z,30.10
2018-03-16T23:43:22.918Z,30.00
2018-03-16T23:45:49.922Z,30.00
2018-03-16T23:48:16.924Z,30.00
2018-03-16T23:50:43.990Z,30.00
2018-03-16T23:53:11.110Z,30.00
2018-03-16T23:55:38.144Z,30.00
2018-03-16T23:58:05.134Z,30.00
